sensor_id;sensor_type;location;lat;lon;timestamp;P1;durP1;ratioP1;P2;durP2;ratioP2
75548;SDS011;64133;56.002;37.208;2022-12-29T00:01:52;2.70;;;0.93;;
75548;SDS011;64133;56.002;37.208;2022-12-29T00:06:56;4.60;;;0.50;;
75548;SDS011;64133;56.002;37.208;2022-12-29T00:12:01;1.45;;;0.70;;
75548;SDS011;64133;56.002;37.208;2022-12-29T00:17:06;3.77;;;0.72;;
75548;SDS011;64133;56.002;37.208;2022-12-29T00:22:11;1.90;;;0.62;;
75548;SDS011;64133;56.002;37.208;2022-12-29T00:27:33;2.85;;;0.70;;
75548;SDS011;64133;56.002;37.208;2022-12-29T00:32:55;4.33;;;0.85;;
75548;SDS011;64133;56.002;37.208;2022-12-29T00:38:17;2.35;;;0.47;;
75548;SDS011;64133;56.002;37.208;2022-12-29T00:43:39;2.95;;;1.00;;
75548;SDS011;64133;56.002;37.208;2022-12-29T00:49:02;2.33;;;0.40;;
75548;SDS011;64133;56.002;37.208;2022-12-29T00:54:24;5.55;;;0.70;;
75548;SDS011;64133;56.002;37.208;2022-12-29T00:59:29;3.87;;;0.72;;
75548;SDS011;64133;56.002;37.208;2022-12-29T01:04:34;2.83;;;0.60;;
75548;SDS011;64133;56.002;37.208;2022-12-29T01:09:38;4.35;;;1.20;;
75548;SDS011;64133;56.002;37.208;2022-12-29T01:15:01;2.90;;;0.72;;
75548;SDS011;64133;56.002;37.208;2022-12-29T01:20:06;2.98;;;0.55;;
75548;SDS011;64133;56.002;37.208;2022-12-29T01:25:11;1.52;;;0.33;;
75548;SDS011;64133;56.002;37.208;2022-12-29T01:30:16;6.97;;;0.80;;
75548;SDS011;64133;56.002;37.208;2022-12-29T01:35:21;1.65;;;0.50;;
75548;SDS011;64133;56.002;37.208;2022-12-29T01:40:26;2.77;;;0.65;;
75548;SDS011;64133;56.002;37.208;2022-12-29T01:45:30;4.42;;;0.72;;
75548;SDS011;64133;56.002;37.208;2022-12-29T01:50:36;2.10;;;0.62;;
75548;SDS011;64133;56.002;37.208;2022-12-29T01:55:41;2.90;;;0.70;;
75548;SDS011;64133;56.002;37.208;2022-12-29T02:00:45;4.72;;;1.30;;
75548;SDS011;64133;56.002;37.208;2022-12-29T02:05:50;1.50;;;0.50;;
75548;SDS011;64133;56.002;37.208;2022-12-29T02:10:54;3.72;;;0.80;;
75548;SDS011;64133;56.002;37.208;2022-12-29T02:16:01;4.33;;;0.75;;
75548;SDS011;64133;56.002;37.208;2022-12-29T02:27:03;2.72;;;0.70;;
75548;SDS011;64133;56.002;37.208;2022-12-29T02:32:25;3.15;;;0.88;;
75548;SDS011;64133;56.002;37.208;2022-12-29T02:37:30;3.37;;;1.15;;
75548;SDS011;64133;56.002;37.208;2022-12-29T02:42:35;2.55;;;0.80;;
75548;SDS011;64133;56.002;37.208;2022-12-29T02:47:39;1.27;;;0.50;;
75548;SDS011;64133;56.002;37.208;2022-12-29T02:52:46;4.65;;;1.20;;
75548;SDS011;64133;56.002;37.208;2022-12-29T02:57:48;6.50;;;1.27;;
75548;SDS011;64133;56.002;37.208;2022-12-29T03:03:11;4.08;;;0.80;;
75548;SDS011;64133;56.002;37.208;2022-12-29T03:08:21;4.15;;;1.15;;
75548;SDS011;64133;56.002;37.208;2022-12-29T03:13:25;3.75;;;0.82;;
75548;SDS011;64133;56.002;37.208;2022-12-29T03:23:51;2.83;;;1.12;;
75548;SDS011;64133;56.002;37.208;2022-12-29T03:28:56;4.35;;;1.20;;
75548;SDS011;64133;56.002;37.208;2022-12-29T03:34:00;3.50;;;0.95;;
75548;SDS011;64133;56.002;37.208;2022-12-29T03:39:06;5.28;;;0.72;;
75548;SDS011;64133;56.002;37.208;2022-12-29T03:44:10;4.55;;;1.02;;
75548;SDS011;64133;56.002;37.208;2022-12-29T03:49:14;3.55;;;0.88;;
75548;SDS011;64133;56.002;37.208;2022-12-29T03:54:19;4.40;;;0.80;;
75548;SDS011;64133;56.002;37.208;2022-12-29T03:59:24;2.67;;;1.10;;
75548;SDS011;64133;56.002;37.208;2022-12-29T04:04:29;3.70;;;1.02;;
75548;SDS011;64133;56.002;37.208;2022-12-29T04:09:33;2.35;;;0.85;;
75548;SDS011;64133;56.002;37.208;2022-12-29T04:14:38;2.50;;;0.62;;
75548;SDS011;64133;56.002;37.208;2022-12-29T04:19:43;5.12;;;0.82;;
75548;SDS011;64133;56.002;37.208;2022-12-29T04:24:47;2.85;;;0.80;;
75548;SDS011;64133;56.002;37.208;2022-12-29T04:29:52;3.92;;;1.00;;
75548;SDS011;64133;56.002;37.208;2022-12-29T04:34:56;3.00;;;1.00;;
75548;SDS011;64133;56.002;37.208;2022-12-29T04:40:01;3.00;;;0.88;;
75548;SDS011;64133;56.002;37.208;2022-12-29T04:45:07;4.22;;;0.93;;
75548;SDS011;64133;56.002;37.208;2022-12-29T04:50:13;3.42;;;0.93;;
75548;SDS011;64133;56.002;37.208;2022-12-29T04:55:17;3.87;;;1.02;;
75548;SDS011;64133;56.002;37.208;2022-12-29T05:00:22;2.40;;;0.95;;
75548;SDS011;64133;56.002;37.208;2022-12-29T05:05:27;6.08;;;1.07;;
75548;SDS011;64133;56.002;37.208;2022-12-29T05:10:31;5.03;;;1.35;;
75548;SDS011;64133;56.002;37.208;2022-12-29T05:15:36;5.25;;;1.27;;
75548;SDS011;64133;56.002;37.208;2022-12-29T05:20:41;4.30;;;1.10;;
75548;SDS011;64133;56.002;37.208;2022-12-29T05:25:46;5.65;;;0.98;;
75548;SDS011;64133;56.002;37.208;2022-12-29T05:30:51;4.55;;;1.20;;
75548;SDS011;64133;56.002;37.208;2022-12-29T05:35:55;3.55;;;1.30;;
75548;SDS011;64133;56.002;37.208;2022-12-29T05:41:00;6.53;;;1.30;;
75548;SDS011;64133;56.002;37.208;2022-12-29T05:46:05;7.72;;;1.42;;
75548;SDS011;64133;56.002;37.208;2022-12-29T05:51:09;1.77;;;0.68;;
75548;SDS011;64133;56.002;37.208;2022-12-29T05:56:51;4.40;;;1.25;;
75548;SDS011;64133;56.002;37.208;2022-12-29T06:01:55;3.90;;;1.82;;
75548;SDS011;64133;56.002;37.208;2022-12-29T06:07:00;5.67;;;0.90;;
75548;SDS011;64133;56.002;37.208;2022-12-29T06:12:06;3.67;;;1.30;;
75548;SDS011;64133;56.002;37.208;2022-12-29T06:17:11;9.60;;;1.27;;
75548;SDS011;64133;56.002;37.208;2022-12-29T06:22:16;6.53;;;1.42;;
75548;SDS011;64133;56.002;37.208;2022-12-29T06:27:21;5.70;;;1.98;;
75548;SDS011;64133;56.002;37.208;2022-12-29T06:32:25;5.47;;;1.70;;
75548;SDS011;64133;56.002;37.208;2022-12-29T06:37:30;3.62;;;1.40;;
75548;SDS011;64133;56.002;37.208;2022-12-29T06:42:35;5.90;;;2.22;;
75548;SDS011;64133;56.002;37.208;2022-12-29T06:47:40;10.82;;;2.55;;
75548;SDS011;64133;56.002;37.208;2022-12-29T06:52:45;6.15;;;2.12;;
75548;SDS011;64133;56.002;37.208;2022-12-29T06:57:50;4.47;;;1.67;;
75548;SDS011;64133;56.002;37.208;2022-12-29T07:02:55;7.60;;;2.52;;
75548;SDS011;64133;56.002;37.208;2022-12-29T07:08:01;6.75;;;2.67;;
75548;SDS011;64133;56.002;37.208;2022-12-29T07:13:06;6.45;;;3.37;;
75548;SDS011;64133;56.002;37.208;2022-12-29T07:18:10;9.65;;;4.58;;
75548;SDS011;64133;56.002;37.208;2022-12-29T07:23:15;9.13;;;3.05;;
75548;SDS011;64133;56.002;37.208;2022-12-29T07:28:20;6.58;;;3.45;;
75548;SDS011;64133;56.002;37.208;2022-12-29T07:33:25;7.30;;;3.10;;
75548;SDS011;64133;56.002;37.208;2022-12-29T07:38:32;10.30;;;3.00;;
75548;SDS011;64133;56.002;37.208;2022-12-29T07:43:37;7.22;;;3.02;;
75548;SDS011;64133;56.002;37.208;2022-12-29T07:48:41;8.48;;;3.25;;
75548;SDS011;64133;56.002;37.208;2022-12-29T07:53:46;9.65;;;3.35;;
75548;SDS011;64133;56.002;37.208;2022-12-29T07:58:51;9.00;;;3.58;;
75548;SDS011;64133;56.002;37.208;2022-12-29T08:03:55;8.35;;;3.72;;
75548;SDS011;64133;56.002;37.208;2022-12-29T08:09:00;8.80;;;3.10;;
75548;SDS011;64133;56.002;37.208;2022-12-29T08:19:09;10.63;;;3.58;;
75548;SDS011;64133;56.002;37.208;2022-12-29T08:24:14;13.00;;;2.95;;
75548;SDS011;64133;56.002;37.208;2022-12-29T08:29:19;6.90;;;2.72;;
75548;SDS011;64133;56.002;37.208;2022-12-29T08:34:23;9.03;;;2.90;;
75548;SDS011;64133;56.002;37.208;2022-12-29T08:39:28;8.33;;;3.58;;
75548;SDS011;64133;56.002;37.208;2022-12-29T08:44:33;4.95;;;2.60;;
75548;SDS011;64133;56.002;37.208;2022-12-29T08:49:37;4.83;;;2.22;;
75548;SDS011;64133;56.002;37.208;2022-12-29T08:54:42;4.92;;;2.45;;
75548;SDS011;64133;56.002;37.208;2022-12-29T08:59:47;6.37;;;2.40;;
75548;SDS011;64133;56.002;37.208;2022-12-29T09:04:51;7.00;;;3.30;;
75548;SDS011;64133;56.002;37.208;2022-12-29T09:09:56;4.53;;;1.90;;
75548;SDS011;64133;56.002;37.208;2022-12-29T09:15:01;7.08;;;1.60;;
75548;SDS011;64133;56.002;37.208;2022-12-29T09:20:07;3.60;;;1.60;;
75548;SDS011;64133;56.002;37.208;2022-12-29T09:25:12;4.60;;;2.00;;
75548;SDS011;64133;56.002;37.208;2022-12-29T09:30:17;5.85;;;1.72;;
75548;SDS011;64133;56.002;37.208;2022-12-29T09:35:22;3.22;;;1.82;;
75548;SDS011;64133;56.002;37.208;2022-12-29T09:40:30;4.17;;;3.00;;
75548;SDS011;64133;56.002;37.208;2022-12-29T09:45:36;4.03;;;2.52;;
75548;SDS011;64133;56.002;37.208;2022-12-29T09:50:40;5.85;;;1.90;;
75548;SDS011;64133;56.002;37.208;2022-12-29T10:00:49;6.30;;;1.87;;
75548;SDS011;64133;56.002;37.208;2022-12-29T10:05:55;6.25;;;2.25;;
75548;SDS011;64133;56.002;37.208;2022-12-29T10:10:59;5.92;;;2.10;;
75548;SDS011;64133;56.002;37.208;2022-12-29T10:16:04;6.35;;;2.70;;
75548;SDS011;64133;56.002;37.208;2022-12-29T10:21:12;5.42;;;2.90;;
75548;SDS011;64133;56.002;37.208;2022-12-29T10:26:17;6.97;;;2.37;;
75548;SDS011;64133;56.002;37.208;2022-12-29T10:31:32;6.35;;;2.20;;
75548;SDS011;64133;56.002;37.208;2022-12-29T10:36:37;8.53;;;3.27;;
75548;SDS011;64133;56.002;37.208;2022-12-29T10:41:43;9.45;;;2.50;;
75548;SDS011;64133;56.002;37.208;2022-12-29T10:46:51;6.67;;;2.87;;
75548;SDS011;64133;56.002;37.208;2022-12-29T10:51:54;6.10;;;3.20;;
75548;SDS011;64133;56.002;37.208;2022-12-29T10:56:59;8.20;;;3.17;;
75548;SDS011;64133;56.002;37.208;2022-12-29T11:02:13;3.85;;;2.65;;
75548;SDS011;64133;56.002;37.208;2022-12-29T11:07:18;4.75;;;2.65;;
75548;SDS011;64133;56.002;37.208;2022-12-29T11:12:24;6.55;;;3.52;;
75548;SDS011;64133;56.002;37.208;2022-12-29T11:17:28;9.35;;;3.50;;
75548;SDS011;64133;56.002;37.208;2022-12-29T11:22:32;6.95;;;3.12;;
75548;SDS011;64133;56.002;37.208;2022-12-29T11:27:37;8.85;;;3.15;;
75548;SDS011;64133;56.002;37.208;2022-12-29T11:32:42;9.90;;;3.72;;
75548;SDS011;64133;56.002;37.208;2022-12-29T11:37:53;7.33;;;3.83;;
75548;SDS011;64133;56.002;37.208;2022-12-29T11:42:55;8.33;;;3.98;;
75548;SDS011;64133;56.002;37.208;2022-12-29T11:47:59;6.50;;;3.65;;
75548;SDS011;64133;56.002;37.208;2022-12-29T11:53:04;6.05;;;3.45;;
75548;SDS011;64133;56.002;37.208;2022-12-29T11:58:12;8.25;;;4.35;;
75548;SDS011;64133;56.002;37.208;2022-12-29T12:03:17;11.97;;;4.03;;
75548;SDS011;64133;56.002;37.208;2022-12-29T12:13:28;8.53;;;3.52;;
75548;SDS011;64133;56.002;37.208;2022-12-29T12:18:37;8.68;;;3.87;;
75548;SDS011;64133;56.002;37.208;2022-12-29T12:23:47;9.28;;;4.33;;
75548;SDS011;64133;56.002;37.208;2022-12-29T12:28:54;8.10;;;3.25;;
75548;SDS011;64133;56.002;37.208;2022-12-29T12:33:58;9.58;;;4.97;;
75548;SDS011;64133;56.002;37.208;2022-12-29T12:39:05;9.28;;;3.85;;
75548;SDS011;64133;56.002;37.208;2022-12-29T12:44:12;13.78;;;4.17;;
75548;SDS011;64133;56.002;37.208;2022-12-29T12:54:29;9.00;;;3.80;;
75548;SDS011;64133;56.002;37.208;2022-12-29T12:59:40;11.28;;;4.90;;
75548;SDS011;64133;56.002;37.208;2022-12-29T13:04:52;14.60;;;5.55;;
75548;SDS011;64133;56.002;37.208;2022-12-29T13:10:30;11.08;;;4.40;;
75548;SDS011;64133;56.002;37.208;2022-12-29T13:15:39;12.60;;;6.60;;
75548;SDS011;64133;56.002;37.208;2022-12-29T13:20:45;14.43;;;6.70;;
75548;SDS011;64133;56.002;37.208;2022-12-29T13:25:50;7.28;;;2.58;;
75548;SDS011;64133;56.002;37.208;2022-12-29T13:36:00;19.52;;;7.35;;
75548;SDS011;64133;56.002;37.208;2022-12-29T13:41:05;10.70;;;6.28;;
75548;SDS011;64133;56.002;37.208;2022-12-29T13:46:11;11.38;;;5.70;;
75548;SDS011;64133;56.002;37.208;2022-12-29T13:51:15;14.30;;;7.47;;
75548;SDS011;64133;56.002;37.208;2022-12-29T14:06:26;10.90;;;5.00;;
75548;SDS011;64133;56.002;37.208;2022-12-29T14:11:31;15.05;;;6.08;;
75548;SDS011;64133;56.002;37.208;2022-12-29T14:16:35;15.13;;;6.28;;
75548;SDS011;64133;56.002;37.208;2022-12-29T14:26:43;18.52;;;7.62;;
75548;SDS011;64133;56.002;37.208;2022-12-29T14:37:01;18.05;;;7.33;;
75548;SDS011;64133;56.002;37.208;2022-12-29T14:42:12;17.55;;;7.42;;
75548;SDS011;64133;56.002;37.208;2022-12-29T14:47:17;8.83;;;3.72;;
75548;SDS011;64133;56.002;37.208;2022-12-29T14:52:23;20.80;;;9.63;;
75548;SDS011;64133;56.002;37.208;2022-12-29T14:57:33;14.53;;;7.42;;
75548;SDS011;64133;56.002;37.208;2022-12-29T15:02:41;13.35;;;6.80;;
75548;SDS011;64133;56.002;37.208;2022-12-29T15:07:45;18.45;;;7.97;;
75548;SDS011;64133;56.002;37.208;2022-12-29T15:17:53;21.45;;;9.00;;
75548;SDS011;64133;56.002;37.208;2022-12-29T15:28:02;17.17;;;7.83;;
75548;SDS011;64133;56.002;37.208;2022-12-29T15:33:11;22.40;;;9.63;;
75548;SDS011;64133;56.002;37.208;2022-12-29T15:38:22;20.00;;;8.90;;
75548;SDS011;64133;56.002;37.208;2022-12-29T15:43:32;17.10;;;8.03;;
75548;SDS011;64133;56.002;37.208;2022-12-29T15:48:42;17.27;;;8.48;;
75548;SDS011;64133;56.002;37.208;2022-12-29T15:53:47;9.45;;;6.60;;
75548;SDS011;64133;56.002;37.208;2022-12-29T15:59:01;14.33;;;6.80;;
75548;SDS011;64133;56.002;37.208;2022-12-29T16:09:14;12.43;;;6.70;;
75548;SDS011;64133;56.002;37.208;2022-12-29T16:14:18;18.02;;;8.73;;
75548;SDS011;64133;56.002;37.208;2022-12-29T16:24:28;21.52;;;10.45;;
75548;SDS011;64133;56.002;37.208;2022-12-29T16:34:42;14.35;;;7.60;;
75548;SDS011;64133;56.002;37.208;2022-12-29T16:39:51;22.67;;;9.08;;
75548;SDS011;64133;56.002;37.208;2022-12-29T16:49:59;7.12;;;2.20;;
75548;SDS011;64133;56.002;37.208;2022-12-29T16:55:04;11.65;;;5.05;;
75548;SDS011;64133;56.002;37.208;2022-12-29T17:00:18;19.30;;;9.88;;
75548;SDS011;64133;56.002;37.208;2022-12-29T17:05:23;19.15;;;9.88;;
75548;SDS011;64133;56.002;37.208;2022-12-29T17:10:28;24.72;;;10.63;;
75548;SDS011;64133;56.002;37.208;2022-12-29T17:15:51;20.32;;;9.00;;
75548;SDS011;64133;56.002;37.208;2022-12-29T17:20:56;17.10;;;8.10;;
75548;SDS011;64133;56.002;37.208;2022-12-29T17:31:05;30.15;;;11.35;;
75548;SDS011;64133;56.002;37.208;2022-12-29T17:36:09;26.75;;;9.65;;
75548;SDS011;64133;56.002;37.208;2022-12-29T17:41:14;14.30;;;6.83;;
75548;SDS011;64133;56.002;37.208;2022-12-29T17:51:22;25.45;;;11.73;;
75548;SDS011;64133;56.002;37.208;2022-12-29T18:01:30;28.47;;;10.95;;
75548;SDS011;64133;56.002;37.208;2022-12-29T18:06:35;15.98;;;7.55;;
75548;SDS011;64133;56.002;37.208;2022-12-29T18:11:40;13.72;;;6.45;;
75548;SDS011;64133;56.002;37.208;2022-12-29T18:16:45;19.45;;;9.13;;
75548;SDS011;64133;56.002;37.208;2022-12-29T18:21:49;20.25;;;7.75;;
75548;SDS011;64133;56.002;37.208;2022-12-29T18:26:54;19.57;;;9.50;;
75548;SDS011;64133;56.002;37.208;2022-12-29T18:31:59;22.70;;;10.00;;
75548;SDS011;64133;56.002;37.208;2022-12-29T18:37:03;10.30;;;3.98;;
75548;SDS011;64133;56.002;37.208;2022-12-29T18:42:09;16.48;;;7.00;;
75548;SDS011;64133;56.002;37.208;2022-12-29T18:47:14;18.00;;;9.50;;
75548;SDS011;64133;56.002;37.208;2022-12-29T18:57:22;27.95;;;11.65;;
75548;SDS011;64133;56.002;37.208;2022-12-29T19:07:29;32.28;;;14.18;;
75548;SDS011;64133;56.002;37.208;2022-12-29T19:17:37;30.88;;;12.30;;
75548;SDS011;64133;56.002;37.208;2022-12-29T19:27:45;33.60;;;14.65;;
75548;SDS011;64133;56.002;37.208;2022-12-29T19:37:54;40.17;;;13.72;;
75548;SDS011;64133;56.002;37.208;2022-12-29T19:48:02;33.05;;;13.48;;
75548;SDS011;64133;56.002;37.208;2022-12-29T19:53:07;43.28;;;14.35;;
75548;SDS011;64133;56.002;37.208;2022-12-29T19:58:12;68.40;;;21.60;;
75548;SDS011;64133;56.002;37.208;2022-12-29T20:03:16;42.23;;;15.98;;
75548;SDS011;64133;56.002;37.208;2022-12-29T20:08:21;65.35;;;19.90;;
75548;SDS011;64133;56.002;37.208;2022-12-29T20:13:26;52.20;;;17.82;;
75548;SDS011;64133;56.002;37.208;2022-12-29T20:18:30;54.30;;;17.60;;
75548;SDS011;64133;56.002;37.208;2022-12-29T20:28:38;44.38;;;17.25;;
75548;SDS011;64133;56.002;37.208;2022-12-29T20:38:46;47.60;;;14.50;;
75548;SDS011;64133;56.002;37.208;2022-12-29T20:43:51;45.73;;;14.68;;
75548;SDS011;64133;56.002;37.208;2022-12-29T20:53:59;76.10;;;22.67;;
75548;SDS011;64133;56.002;37.208;2022-12-29T20:59:04;83.37;;;24.25;;
75548;SDS011;64133;56.002;37.208;2022-12-29T21:09:11;15.60;;;4.40;;
75548;SDS011;64133;56.002;37.208;2022-12-29T21:19:19;31.70;;;13.10;;
75548;SDS011;64133;56.002;37.208;2022-12-29T21:24:24;75.90;;;24.50;;
75548;SDS011;64133;56.002;37.208;2022-12-29T21:29:29;73.85;;;21.12;;
75548;SDS011;64133;56.002;37.208;2022-12-29T21:39:37;54.67;;;16.62;;
75548;SDS011;64133;56.002;37.208;2022-12-29T21:44:41;25.25;;;8.43;;
75548;SDS011;64133;56.002;37.208;2022-12-29T21:50:04;15.80;;;6.30;;
75548;SDS011;64133;56.002;37.208;2022-12-29T21:55:09;46.23;;;15.10;;
75548;SDS011;64133;56.002;37.208;2022-12-29T22:00:15;29.32;;;10.65;;
75548;SDS011;64133;56.002;37.208;2022-12-29T22:05:38;58.78;;;19.35;;
75548;SDS011;64133;56.002;37.208;2022-12-29T22:11:06;32.93;;;12.05;;
75548;SDS011;64133;56.002;37.208;2022-12-29T22:16:28;51.40;;;18.52;;
75548;SDS011;64133;56.002;37.208;2022-12-29T22:26:36;21.17;;;7.28;;
75548;SDS011;64133;56.002;37.208;2022-12-29T22:31:40;52.65;;;15.38;;
75548;SDS011;64133;56.002;37.208;2022-12-29T22:36:45;39.63;;;14.13;;
75548;SDS011;64133;56.002;37.208;2022-12-29T22:41:50;22.07;;;7.50;;
75548;SDS011;64133;56.002;37.208;2022-12-29T22:51:58;42.85;;;15.80;;
75548;SDS011;64133;56.002;37.208;2022-12-29T22:57:02;43.73;;;16.65;;
75548;SDS011;64133;56.002;37.208;2022-12-29T23:07:10;34.05;;;12.73;;
75548;SDS011;64133;56.002;37.208;2022-12-29T23:12:15;59.45;;;18.80;;
75548;SDS011;64133;56.002;37.208;2022-12-29T23:22:23;42.78;;;14.95;;
75548;SDS011;64133;56.002;37.208;2022-12-29T23:27:27;21.37;;;7.67;;
75548;SDS011;64133;56.002;37.208;2022-12-29T23:37:35;41.02;;;14.55;;
75548;SDS011;64133;56.002;37.208;2022-12-29T23:42:40;22.67;;;8.23;;
75548;SDS011;64133;56.002;37.208;2022-12-29T23:47:44;24.05;;;8.65;;
75548;SDS011;64133;56.002;37.208;2022-12-29T23:52:49;32.75;;;11.40;;
75548;SDS011;64133;56.002;37.208;2022-12-29T23:57:54;34.40;;;14.07;;
